Time;durP1;ratioP1;P1;durP2;ratioP2;P2;SDS_P1;SDS_P2;PMS_P1;PMS_P2;Temp;Humidity;BMP_temperature;BMP_pressure;BME280_temperature;BME280_humidity;BME280_pressure;Samples;Min_cycle;Max_cycle;Signal;HPM_P1;HPM_P2
2021/04/01 00:00:09;;;;;;;9.07;5.13;;;;;;;12.84;100.00;98174.94;5092413;28;20201;-69
2021/04/01 00:02:36;;;;;;;11.17;5.30;;;;;;;12.70;100.00;98177.31;5092804;28;20253;-69
2021/04/01 00:05:04;;;;;;;16.23;5.57;;;;;;;12.60;100.00;98180.53;5091172;28;20228;-69
2021/04/01 00:07:30;;;;;;;15.17;5.10;;;;;;;12.59;100.00;98174.19;5091176;28;20760;-68
2021/04/01 00:09:56;;;;;;;10.83;5.63;;;;;;;12.65;100.00;98169.22;5092487;28;20204;-69
2021/04/01 00:12:23;;;;;;;8.70;4.90;;;;;;;12.60;100.00;98167.50;5089993;28;20258;-69
2021/04/01 00:14:49;;;;;;;10.87;5.30;;;;;;;12.56;100.00;98168.53;5091744;28;20208;-71
2021/04/01 00:17:16;;;;;;;9.60;5.17;;;;;;;12.64;100.00;98170.38;5092142;28;20228;-70
2021/04/01 00:19:42;;;;;;;11.53;4.93;;;;;;;12.61;100.00;98162.78;5092441;28;20200;-70
2021/04/01 00:22:08;;;;;;;14.47;5.20;;;;;;;12.55;100.00;98162.22;5091960;28;20204;-70
2021/04/01 00:24:35;;;;;;;13.83;5.00;;;;;;;12.48;100.00;98159.22;5092175;28;20259;-70
2021/04/01 00:27:02;;;;;;;10.60;4.97;;;;;;;12.42;100.00;98160.63;5093052;28;20666;-70
2021/04/01 00:29:28;;;;;;;7.83;4.60;;;;;;;12.53;100.00;98155.41;5084893;28;20293;-69
2021/04/01 00:31:54;;;;;;;13.00;4.73;;;;;;;12.51;100.00;98152.19;5091256;28;20230;-69
2021/04/01 00:34:20;;;;;;;9.57;5.37;;;;;;;12.42;100.00;98157.88;5091882;28;20204;-69
2021/04/01 00:36:46;;;;;;;8.93;4.80;;;;;;;12.37;100.00;98155.31;5092045;28;20238;-69
2021/04/01 00:39:12;;;;;;;8.17;4.80;;;;;;;12.22;100.00;98159.59;5091532;28;20240;-70
2021/04/01 00:41:40;;;;;;;12.30;5.40;;;;;;;12.21;100.00;98169.06;5091732;28;20658;-69
2021/04/01 00:44:07;;;;;;;13.67;4.87;;;;;;;12.20;100.00;98161.94;5091208;28;20209;-70
2021/04/01 00:46:34;;;;;;;9.03;4.93;;;;;;;12.22;100.00;98158.81;5091643;28;20265;-69
2021/04/01 00:49:00;;;;;;;17.23;5.10;;;;;;;12.16;100.00;98155.47;5091651;28;20220;-69
2021/04/01 00:51:26;;;;;;;12.70;5.30;;;;;;;12.07;100.00;98145.69;5091504;28;20262;-69
2021/04/01 00:53:53;;;;;;;10.47;4.83;;;;;;;12.03;100.00;98156.63;5091464;28;20673;-69
2021/04/01 00:56:22;;;;;;;9.30;4.20;;;;;;;12.01;100.00;98156.16;5091176;28;20266;-69
2021/04/01 00:58:48;;;;;;;8.20;4.30;;;;;;;12.05;100.00;98156.28;5091348;28;20244;-69
2021/04/01 01:34:21;;;;;;;12.10;4.97;;;;;;;11.73;100.00;98122.03;5108305;27;20495;-68
2021/04/01 01:36:49;;;;;;;11.77;5.27;;;;;;;11.68;100.00;98122.28;5108733;28;20204;-68
2021/04/01 01:39:15;;;;;;;9.13;4.43;;;;;;;11.64;100.00;98115.78;5108938;28;20575;-69
2021/04/01 01:41:42;;;;;;;11.67;5.40;;;;;;;11.62;100.00;98123.66;5109325;28;20207;-69
2021/04/01 01:44:08;;;;;;;17.87;5.57;;;;;;;11.60;100.00;98120.41;5108344;28;20199;-68
2021/04/01 01:46:34;;;;;;;8.07;5.30;;;;;;;11.55;100.00;98115.09;5109013;28;20299;-69
2021/04/01 01:49:02;;;;;;;10.37;4.90;;;;;;;11.28;100.00;98115.75;5108984;28;20204;-69
2021/04/01 01:51:29;;;;;;;8.63;4.87;;;;;;;11.32;100.00;98113.91;5107761;28;20734;-69
2021/04/01 01:53:56;;;;;;;10.73;4.73;;;;;;;11.46;100.00;98108.88;5107207;28;20227;-68
2021/04/01 01:56:26;;;;;;;12.60;5.00;;;;;;;11.44;100.00;98105.63;5107096;28;20222;-68
2021/04/01 01:58:54;;;;;;;11.53;5.17;;;;;;;11.40;100.00;98107.50;5108292;28;20227;-68
2021/04/01 02:01:21;;;;;;;9.63;4.87;;;;;;;11.22;100.00;98114.38;5108057;28;20291;-68
2021/04/01 02:03:47;;;;;;;14.43;5.63;;;;;;;11.06;100.00;98110.63;5108515;28;20208;-69
2021/04/01 02:06:15;;;;;;;10.47;5.03;;;;;;;10.95;100.00;98112.19;5108005;28;20208;-69
2021/04/01 02:08:41;;;;;;;8.53;4.23;;;;;;;11.05;100.00;98111.78;5108422;28;20307;-68
2021/04/01 02:11:08;;;;;;;9.30;5.00;;;;;;;11.10;100.00;98104.09;5108341;28;20291;-68
2021/04/01 02:13:34;;;;;;;10.67;4.60;;;;;;;11.14;100.00;98112.50;5108607;28;20315;-68
2021/04/01 02:16:00;;;;;;;10.93;4.70;;;;;;;11.01;100.00;98099.81;5109222;28;20291;-68
2021/04/01 02:18:28;;;;;;;9.53;4.60;;;;;;;11.05;100.00;98104.31;5108563;28;20223;-68
2021/04/01 02:20:57;;;;;;;10.30;4.60;;;;;;;11.01;100.00;98099.81;5108498;28;20208;-68
2021/04/01 02:23:34;;;;;;;10.90;4.50;;;;;;;10.98;100.00;98104.03;5117116;28;20236;-68
2021/04/01 02:26:02;;;;;;;9.83;4.80;;;;;;;10.96;100.00;98100.84;5122271;28;20242;-68
2021/04/01 02:28:29;;;;;;;7.80;4.47;;;;;;;10.92;100.00;98105.44;5116042;28;20720;-68
2021/04/01 02:31:01;;;;;;;10.13;4.97;;;;;;;11.00;100.00;98110.03;5107862;28;20212;-68
2021/04/01 02:33:29;;;;;;;9.97;4.30;;;;;;;10.97;100.00;98107.97;5107988;28;20294;-68
2021/04/01 02:35:56;;;;;;;11.23;4.93;;;;;;;10.90;100.00;98104.97;5108215;28;20291;-68
2021/04/01 02:38:24;;;;;;;16.77;4.97;;;;;;;10.95;100.00;98103.91;5107688;28;20274;-68
2021/04/01 02:40:51;;;;;;;13.17;4.80;;;;;;;10.90;100.00;98096.66;5107803;28;20239;-68
2021/04/01 02:43:31;;;;;;;9.90;5.10;;;;;;;10.83;100.00;98098.38;5106807;28;20291;-69
2021/04/01 02:45:57;;;;;;;9.27;4.73;;;;;;;10.77;100.00;98091.44;5093887;28;20204;-69
2021/04/01 02:48:23;;;;;;;14.27;4.63;;;;;;;10.78;100.00;98095.81;5094450;28;20232;-68
2021/04/01 02:50:49;;;;;;;15.13;4.70;;;;;;;10.85;100.00;98101.59;5095594;28;20236;-68
2021/04/01 02:53:15;;;;;;;7.43;4.37;;;;;;;10.84;100.00;98097.22;5094924;28;20328;-69
2021/04/01 02:55:41;;;;;;;10.10;5.07;;;;;;;10.86;100.00;98089.41;5094148;28;20240;-69
2021/04/01 02:58:08;;;;;;;15.73;5.20;;;;;;;10.91;100.00;98103.78;5094017;28;20232;-69
2021/04/01 03:00:36;;;;;;;9.03;5.47;;;;;;;11.00;100.00;98100.97;5094877;28;20657;-70
2021/04/01 03:05:38;;;;;;;10.13;5.27;;;;;;;10.64;100.00;98114.59;5087293;28;20625;-68
2021/04/01 03:08:04;;;;;;;10.20;5.33;;;;;;;10.75;100.00;98094.53;5093874;28;20647;-68
2021/04/01 03:10:30;;;;;;;7.03;4.47;;;;;;;10.75;100.00;98094.53;5093683;28;20293;-68
2021/04/01 03:12:56;;;;;;;10.43;4.40;;;;;;;10.84;100.00;98100.78;5093375;28;20252;-68
2021/04/01 03:15:22;;;;;;;12.63;5.10;;;;;;;10.74;100.00;98092.13;5093375;28;20250;-69
2021/04/01 03:17:48;;;;;;;14.00;5.63;;;;;;;10.65;100.00;98094.16;5094258;28;20311;-69
2021/04/01 03:20:14;;;;;;;11.33;5.47;;;;;;;10.52;100.00;98095.25;5097240;28;20236;-68
2021/04/01 03:22:41;;;;;;;10.60;4.80;;;;;;;10.55;100.00;98094.56;5096052;28;20283;-68
2021/04/01 03:25:09;;;;;;;10.27;5.00;;;;;;;10.50;100.00;98097.53;5076858;28;20744;-69
2021/04/01 03:27:36;;;;;;;8.23;5.07;;;;;;;10.47;100.00;98103.75;5095138;28;20233;-69
2021/04/01 03:30:09;;;;;;;8.33;5.37;;;;;;;10.43;100.00;98100.03;5093376;28;20205;-69
2021/04/01 03:32:37;;;;;;;10.17;5.37;;;;;;;10.43;100.00;98100.84;5085886;28;20228;-68
2021/04/01 03:35:06;;;;;;;9.80;4.90;;;;;;;10.46;100.00;98097.41;5093177;28;20224;-68
2021/04/01 03:37:32;;;;;;;9.43;5.00;;;;;;;10.59;100.00;98101.84;5093314;28;20224;-68
2021/04/01 03:39:59;;;;;;;9.87;5.13;;;;;;;10.55;100.00;98100.06;5093256;28;20236;-68
2021/04/01 03:42:26;;;;;;;7.17;4.97;;;;;;;10.56;100.00;98102.53;5091112;28;20281;-68
2021/04/01 03:44:53;;;;;;;6.97;4.63;;;;;;;10.57;100.00;98104.13;5092892;28;20204;-68
2021/04/01 03:47:20;;;;;;;11.27;4.70;;;;;;;10.48;100.00;98106.16;5092312;28;20255;-69
2021/04/01 03:49:46;;;;;;;8.80;4.93;;;;;;;10.51;100.00;98104.69;5093067;28;20209;-68
2021/04/01 03:52:12;;;;;;;14.60;4.33;;;;;;;10.48;100.00;98105.34;5092711;28;20205;-68
2021/04/01 03:54:38;;;;;;;12.50;5.13;;;;;;;10.42;100.00;98106.72;5092840;28;20231;-68
2021/04/01 03:57:06;;;;;;;10.90;4.20;;;;;;;10.35;100.00;98107.22;5090526;28;20243;-68
2021/04/01 03:59:42;;;;;;;12.87;4.70;;;;;;;10.31;100.00;98109.03;5092632;28;20265;-68
2021/04/01 04:07:30;;;;;;;8.90;4.90;;;;;;;10.22;100.00;98102.00;5092229;28;20953;-68
2021/04/01 04:10:12;;;;;;;10.03;4.73;;;;;;;10.08;100.00;98097.50;5092577;28;20208;-68
2021/04/01 04:15:19;;;;;;;11.73;4.90;;;;;;;10.22;100.00;98097.28;5092280;28;20236;-68
2021/04/01 04:17:45;;;;;;;13.57;4.87;;;;;;;10.00;100.00;98095.63;5092473;28;20263;-69
2021/04/01 04:20:12;;;;;;;9.33;4.37;;;;;;;10.04;100.00;98091.03;5092153;28;20287;-68
2021/04/01 04:22:38;;;;;;;15.00;5.20;;;;;;;10.10;100.00;98086.19;5091457;28;20552;-68
2021/04/01 04:25:07;;;;;;;12.23;4.40;;;;;;;10.07;100.00;98082.09;5091742;28;20219;-68
2021/04/01 04:30:05;;;;;;;8.93;5.20;;;;;;;10.16;100.00;98077.34;5092768;28;20643;-68
2021/04/01 04:32:34;;;;;;;8.93;4.47;;;;;;;10.14;100.00;98078.84;5093128;28;20263;-68
2021/04/01 04:35:01;;;;;;;12.57;4.87;;;;;;;10.04;100.00;98080.03;5091938;28;20247;-68
2021/04/01 04:37:27;;;;;;;8.10;4.70;;;;;;;10.13;100.00;98078.03;5091671;28;20725;-67
2021/04/01 04:39:53;;;;;;;9.73;5.10;;;;;;;10.05;100.00;98078.06;5092237;28;20208;-68
2021/04/01 04:42:19;;;;;;;11.20;4.80;;;;;;;10.04;100.00;98077.25;5091335;28;20203;-68
2021/04/01 04:44:45;;;;;;;10.47;4.47;;;;;;;10.05;100.00;98078.88;5091359;28;20201;-67
2021/04/01 04:47:11;;;;;;;11.40;4.83;;;;;;;10.16;100.00;98076.56;5091285;28;20640;-70
2021/04/01 04:49:37;;;;;;;8.93;4.97;;;;;;;10.10;100.00;98077.91;5091640;28;20247;-69
2021/04/01 04:52:06;;;;;;;10.73;5.13;;;;;;;10.12;100.00;98087.47;5091976;28;20204;-69
2021/04/01 04:54:32;;;;;;;11.97;4.83;;;;;;;10.16;100.00;98082.88;5091779;28;20233;-69
2021/04/01 04:57:02;;;;;;;10.23;4.70;;;;;;;10.13;100.00;98080.78;5092359;28;20229;-69
2021/04/01 04:59:35;;;;;;;13.00;4.43;;;;;;;10.16;100.00;98080.13;5101817;28;20209;-68
2021/04/01 05:04:52;;;;;;;11.77;4.50;;;;;;;10.11;100.00;98088.59;5099974;28;20227;-69
2021/04/01 05:07:18;;;;;;;13.47;5.10;;;;;;;10.22;100.00;98096.47;5096296;28;20263;-68
2021/04/01 05:09:44;;;;;;;13.67;4.83;;;;;;;10.59;100.00;98090.81;5093047;28;20209;-68
2021/04/01 05:12:10;;;;;;;13.60;4.67;;;;;;;10.82;100.00;98080.22;5092206;28;20277;-69
2021/04/01 05:14:36;;;;;;;9.17;4.53;;;;;;;11.25;100.00;98091.59;5091477;28;20234;-69
2021/04/01 05:17:03;;;;;;;14.20;4.80;;;;;;;11.69;100.00;98087.97;5091927;28;20229;-68
2021/04/01 05:19:30;;;;;;;9.67;4.90;;;;;;;12.00;100.00;98085.41;5092458;28;20291;-69
2021/04/01 05:24:37;;;;;;;9.73;4.63;;;;;;;12.34;100.00;98094.31;5091280;28;20303;-69
2021/04/01 05:27:11;;;;;;;12.87;5.10;;;;;;;13.19;100.00;98088.09;5090892;28;20704;-68
2021/04/01 05:29:57;;;;;;;19.17;6.17;;;;;;;13.08;100.00;98080.69;5091633;28;20204;-69
2021/04/01 05:32:28;;;;;;;14.57;5.57;;;;;;;13.05;100.00;98092.47;5090685;28;20361;-68
2021/04/01 05:34:55;;;;;;;17.30;5.47;;;;;;;13.66;100.00;98088.16;5091661;28;20239;-67
2021/04/01 05:37:27;;;;;;;16.73;5.60;;;;;;;13.33;100.00;98098.78;5090690;28;20247;-68
2021/04/01 05:39:54;;;;;;;23.73;6.73;;;;;;;12.78;100.00;98091.31;5090821;28;20239;-71
2021/04/01 05:42:24;;;;;;;22.40;7.07;;;;;;;12.06;100.00;98102.59;5090697;28;20303;-68
2021/04/01 05:47:27;;;;;;;17.87;6.47;;;;;;;12.90;100.00;98098.75;5090468;28;20225;-68
2021/04/01 05:50:09;;;;;;;23.17;6.67;;;;;;;12.94;100.00;98096.88;5090616;28;20216;-70
2021/04/01 05:58:24;;;;;;;18.10;6.93;;;;;;;13.58;100.00;98110.50;5082287;28;21067;-70
2021/04/01 06:03:52;;;;;;;20.93;7.17;;;;;;;13.43;100.00;98117.63;5088466;28;20279;-71
2021/04/01 06:06:25;;;;;;;23.37;8.20;;;;;;;12.89;100.00;98113.75;5089918;28;20284;-70
2021/04/01 06:08:53;;;;;;;16.37;7.10;;;;;;;14.05;100.00;98116.84;5090260;28;20224;-69
2021/04/01 06:11:21;;;;;;;17.33;6.93;;;;;;;16.06;100.00;98114.16;5090445;28;20292;-70
2021/04/01 06:16:35;;;;;;;20.80;7.43;;;;;;;17.76;100.00;98109.56;5090913;28;20204;-70
2021/04/01 06:19:05;;;;;;;17.33;7.30;;;;;;;17.40;100.00;98115.16;5090950;28;20251;-71
2021/04/01 06:21:39;;;;;;;25.17;7.97;;;;;;;18.18;100.00;98104.34;5094171;28;20733;-71
2021/04/01 06:24:22;;;;;;;26.40;7.70;;;;;;;18.44;100.00;98110.94;5082316;28;20687;-73
2021/04/01 06:27:15;;;;;;;25.48;7.70;;;;;;;18.20;100.00;98104.75;5088750;28;20316;-71
2021/04/01 06:30:12;;;;;;;20.60;8.07;;;;;;;16.88;100.00;98114.16;5088492;28;20300;-71
2021/04/01 06:32:31;;;;;;;17.33;7.50;;;;;;;17.07;100.00;98110.41;5089261;28;20216;-72
2021/04/01 06:35:21;;;;;;;12.10;6.68;;;;;;;16.76;100.00;98105.25;5089404;28;20215;-72
2021/04/01 06:40:43;;;;;;;13.02;6.20;;;;;;;18.67;100.00;98094.69;5089773;28;20614;-73
2021/04/01 06:43:19;;;;;;;22.27;6.22;;;;;;;18.99;100.00;98092.84;5087328;28;20226;-71
2021/04/01 06:45:52;;;;;;;18.17;6.80;;;;;;;18.77;100.00;98093.94;5089074;28;20652;-72
2021/04/01 06:48:22;;;;;;;13.90;6.47;;;;;;;19.56;100.00;98094.63;5088419;28;20234;-72
2021/04/01 06:50:56;;;;;;;20.70;7.10;;;;;;;20.02;100.00;98087.06;5089799;28;20292;-73
2021/04/01 06:53:39;;;;;;;19.33;6.95;;;;;;;20.06;100.00;98089.88;5088267;28;20273;-73
2021/04/01 06:59:47;;;;;;;23.60;7.45;;;;;;;21.39;100.00;98091.53;5087806;28;20751;-74
2021/04/01 07:02:26;;;;;;;20.58;7.00;;;;;;;20.61;100.00;98088.22;5088542;28;20205;-73
2021/04/01 07:04:58;;;;;;;16.85;7.95;;;;;;;20.30;100.00;98086.28;5088935;28;20235;-72
2021/04/01 07:07:25;;;;;;;13.43;6.90;;;;;;;20.63;100.00;98080.19;5092735;28;20221;-72
2021/04/01 07:12:43;;;;;;;20.45;7.20;;;;;;;20.57;100.00;98089.41;5086208;28;20214;-73
2021/04/01 07:15:20;;;;;;;24.00;6.88;;;;;;;21.43;100.00;98081.06;5088552;28;20302;-72
2021/04/01 07:17:53;;;;;;;17.23;7.60;;;;;;;19.70;100.00;98080.66;5086047;28;20829;-72
2021/04/01 07:21:04;;;;;;;20.73;8.43;;;;;;;20.52;100.00;98075.81;5087713;28;20291;-72
2021/04/01 07:23:57;;;;;;;24.95;8.75;;;;;;;20.42;100.00;98077.44;5087233;28;20315;-73
2021/04/01 07:48:44;;;;;;;18.35;9.15;;;;;;;23.12;100.00;98057.81;5082860;28;20216;-76
2021/04/01 07:54:09;;;;;;;15.90;9.15;;;;;;;23.73;97.14;98047.31;5086924;28;20200;-72
2021/04/01 07:56:48;;;;;;;22.02;9.32;;;;;;;23.07;98.84;98051.84;5088438;28;20912;-72
2021/04/01 08:04:19;;;;;;;16.80;9.13;;;;;;;24.99;82.03;98052.69;5086576;28;20223;-72
2021/04/01 08:06:46;;;;;;;17.80;8.80;;;;;;;24.04;87.56;98056.50;5088200;28;20678;-72
2021/04/01 08:09:19;;;;;;;24.58;9.60;;;;;;;23.88;91.88;98053.50;5074135;28;20933;-72
2021/04/01 08:11:51;;;;;;;14.50;8.88;;;;;;;23.32;96.49;98057.19;5089220;28;20196;-72
2021/04/01 08:14:33;;;;;;;17.23;9.10;;;;;;;25.08;86.00;98052.91;5072123;28;20300;-72
2021/04/01 08:17:17;;;;;;;26.38;9.80;;;;;;;25.08;78.49;98057.75;5089266;28;20224;-72
2021/04/01 08:19:50;;;;;;;15.32;9.20;;;;;;;24.36;82.78;98064.41;5090540;28;20287;-72
2021/04/01 08:22:42;;;;;;;19.30;9.70;;;;;;;25.51;77.80;98063.31;5089827;28;20200;-73
2021/04/01 08:25:36;;;;;;;22.42;9.63;;;;;;;25.16;79.45;98047.91;5089684;28;20215;-72
2021/04/01 08:28:39;;;;;;;22.73;9.32;;;;;;;25.04;80.31;98054.22;5089291;28;20675;-72
2021/04/01 08:34:40;;;;;;;20.75;9.30;;;;;;;25.51;77.07;98049.97;5067500;28;20205;-74
2021/04/01 08:37:32;;;;;;;18.65;9.00;;;;;;;25.91;74.43;98042.94;5067909;28;20227;-72
2021/04/01 08:40:19;;;;;;;20.42;9.30;;;;;;;25.50;76.56;98044.75;5067806;28;20209;-71
2021/04/01 08:43:35;;;;;;;24.27;9.70;;;;;;;25.08;77.45;98052.13;5065542;28;20229;-71
2021/04/01 08:46:51;;;;;;;13.55;9.18;;;;;;;24.90;80.19;98035.53;5067081;28;20205;-71
2021/04/01 08:49:51;;;;;;;12.75;9.95;;;;;;;26.41;77.07;98036.03;5074251;28;20212;-72
2021/04/01 08:52:31;;;;;;;20.65;9.65;;;;;;;26.22;74.14;98034.13;5085645;28;20204;-72
2021/04/01 08:55:11;;;;;;;21.10;9.52;;;;;;;26.21;74.43;98038.19;5088754;28;20215;-71
2021/04/01 08:58:02;;;;;;;30.77;10.07;;;;;;;24.71;80.76;98025.03;5087145;28;20232;-71
2021/04/01 09:00:30;;;;;;;21.65;9.75;;;;;;;25.63;75.19;98021.03;5087100;28;20205;-72
2021/04/01 09:02:57;;;;;;;21.02;10.23;;;;;;;26.06;74.63;98026.44;5085981;28;20290;-72
2021/04/01 09:05:24;;;;;;;16.98;9.60;;;;;;;25.17;82.43;98020.44;5087008;28;20297;-70
2021/04/01 09:07:55;;;;;;;16.02;9.73;;;;;;;24.93;85.70;98022.56;5086308;28;20232;-71
2021/04/01 09:10:24;;;;;;;14.30;10.10;;;;;;;25.95;84.44;98015.38;5085725;28;20204;-71
2021/04/01 09:13:01;;;;;;;20.55;10.65;;;;;;;27.11;73.57;98017.09;5086120;28;20288;-72
2021/04/01 09:17:59;;;;;;;20.23;10.77;;;;;;;26.28;73.93;98009.69;5086576;28;20575;-73
2021/04/01 09:20:26;;;;;;;20.85;10.02;;;;;;;27.19;70.68;98003.50;5086166;28;20208;-71
2021/04/01 09:22:56;;;;;;;18.40;10.23;;;;;;;26.44;77.50;98001.19;5085504;28;20234;-72
2021/04/01 09:25:34;;;;;;;17.20;9.95;;;;;;;27.03;69.81;97999.50;5086652;28;20200;-72
2021/04/01 09:28:03;;;;;;;24.33;10.48;;;;;;;24.93;79.46;97995.13;5086843;28;20224;-74
2021/04/01 09:30:30;;;;;;;20.05;10.07;;;;;;;25.58;80.64;97984.00;5086861;28;20235;-73
2021/04/01 09:33:02;;;;;;;28.02;10.48;;;;;;;26.20;71.97;97986.47;5082530;28;20223;-72
2021/04/01 09:35:29;;;;;;;22.60;10.32;;;;;;;26.61;72.51;97982.91;5085857;28;20208;-72
2021/04/01 09:38:19;;;;;;;21.23;10.35;;;;;;;25.94;73.53;97991.16;5085987;28;20892;-71
2021/04/01 09:40:50;;;;;;;17.83;11.70;;;;;;;26.43;71.20;97989.06;5084356;28;20254;-72
2021/04/01 09:43:19;;;;;;;21.95;10.30;;;;;;;26.03;75.55;97980.00;5085251;28;20220;-73
2021/04/01 09:45:47;;;;;;;24.55;10.90;;;;;;;26.26;75.40;97983.91;5086390;28;20201;-71
2021/04/01 09:48:16;;;;;;;17.52;10.80;;;;;;;27.45;68.90;97971.09;5084882;28;20649;-71
2021/04/01 09:50:44;;;;;;;21.20;10.18;;;;;;;26.37;73.54;97973.88;5085735;28;20289;-71
2021/04/01 09:53:18;;;;;;;24.80;11.27;;;;;;;27.04;68.69;97971.97;5086159;28;20665;-71
2021/04/01 09:55:48;;;;;;;27.27;10.40;;;;;;;26.76;70.59;97961.47;5090916;28;20215;-71
2021/04/01 09:58:41;;;;;;;24.55;10.70;;;;;;;27.39;68.86;97956.69;5089354;28;20267;-72
2021/04/01 10:01:26;;;;;;;22.60;10.82;;;;;;;26.58;72.07;97961.16;5092827;28;20291;-72
2021/04/01 10:04:01;;;;;;;21.60;10.85;;;;;;;26.11;75.97;97954.38;5090142;28;20216;-72
2021/04/01 10:06:50;;;;;;;23.52;11.48;;;;;;;26.57;73.78;97953.91;5090563;28;20239;-72
2021/04/01 10:09:26;;;;;;;20.20;10.77;;;;;;;25.36;79.89;97949.78;5090316;28;20941;-72
2021/04/01 10:12:07;;;;;;;20.65;12.32;;;;;;;26.12;76.01;97947.47;5092048;28;20299;-72
2021/04/01 10:14:48;;;;;;;17.75;12.20;;;;;;;25.70;78.75;97941.69;5109641;28;20243;-72
2021/04/01 10:17:18;;;;;;;26.52;11.57;;;;;;;25.49;81.51;97935.78;5112135;28;20220;-72
2021/04/01 10:19:53;;;;;;;24.23;13.00;;;;;;;24.10;93.13;97928.66;5105011;28;20216;-72
2021/04/01 10:22:24;;;;;;;29.65;12.82;;;;;;;25.18;89.17;97926.00;5092373;28;20618;-71
2021/04/01 10:25:22;;;;;;;34.88;13.32;;;;;;;25.28;94.58;97924.94;5090293;28;20317;-71
2021/04/01 10:28:02;;;;;;;24.17;12.57;;;;;;;25.67;90.38;97928.44;5092666;28;20220;-72
2021/04/01 10:30:32;;;;;;;36.10;13.20;;;;;;;25.87;95.63;97917.00;5093450;28;20287;-72
2021/04/01 10:33:20;;;;;;;26.20;12.68;;;;;;;25.48;87.14;97918.00;5091090;28;20711;-72
2021/04/01 10:35:50;;;;;;;28.90;13.70;;;;;;;25.09;90.45;97915.28;5085540;28;20197;-71
2021/04/01 10:38:18;;;;;;;32.70;13.60;;;;;;;25.17;92.91;97907.44;5081659;28;20654;-72
2021/04/01 10:40:51;;;;;;;26.77;13.73;;;;;;;24.87;92.86;97911.38;5087511;28;20204;-72
2021/04/01 10:43:20;;;;;;;27.73;13.95;;;;;;;25.16;90.90;97906.66;5087242;28;20307;-74
2021/04/01 10:45:46;;;;;;;24.67;13.63;;;;;;;24.93;90.21;97892.66;5088919;28;20211;-73
2021/04/01 10:48:29;;;;;;;29.48;13.85;;;;;;;25.30;87.41;97888.56;5089161;28;20224;-75
2021/04/01 10:51:02;;;;;;;29.48;14.18;;;;;;;24.32;93.17;97886.72;5072244;28;20287;-74
2021/04/01 10:53:30;;;;;;;30.90;13.73;;;;;;;25.00;99.22;97886.84;5089308;28;20200;-74
2021/04/01 10:56:05;;;;;;;33.38;14.05;;;;;;;25.94;89.63;97883.69;5088376;28;20215;-73
2021/04/01 10:58:32;;;;;;;32.25;14.43;;;;;;;25.45;90.66;97892.66;5087218;28;20228;-74
2021/04/01 11:01:00;;;;;;;28.15;14.57;;;;;;;24.78;94.24;97880.13;5084642;28;20661;-75
2021/04/01 11:03:36;;;;;;;33.63;15.38;;;;;;;24.45;94.56;97879.19;5067162;28;20267;-75
2021/04/01 11:06:04;;;;;;;27.10;14.35;;;;;;;24.09;95.95;97867.84;5070559;28;20229;-74
2021/04/01 11:08:40;;;;;;;26.80;13.77;;;;;;;24.64;95.85;97869.91;5070796;28;20275;-75
2021/04/01 11:11:07;;;;;;;26.13;12.32;;;;;;;25.14;81.68;97874.44;5082296;28;20212;-75
2021/04/01 11:13:38;;;;;;;24.23;12.93;;;;;;;25.25;82.60;97875.78;5088440;28;20295;-74
2021/04/01 11:16:07;;;;;;;18.92;11.60;;;;;;;25.54;75.08;97865.38;5089993;28;20212;-74
2021/04/01 11:18:42;;;;;;;21.95;10.57;;;;;;;25.58;66.29;97866.03;5088891;28;20297;-73
2021/04/01 11:21:11;;;;;;;13.95;6.53;;;;;;;25.74;53.60;97863.22;5087543;28;20204;-75
2021/04/01 11:23:37;;;;;;;11.82;5.65;;;;;;;25.75;48.12;97861.97;5088237;28;20271;-73
2021/04/01 11:26:04;;;;;;;11.40;6.30;;;;;;;25.65;46.47;97854.56;5089896;28;20201;-75
2021/04/01 11:28:44;;;;;;;10.30;5.80;;;;;;;25.75;48.05;97853.47;5091854;28;20244;-77
2021/04/01 11:31:25;;;;;;;13.05;5.25;;;;;;;25.77;46.82;97842.53;5090395;28;20622;-75
2021/04/01 11:33:53;;;;;;;9.93;5.97;;;;;;;25.84;46.82;97842.31;5092275;28;20299;-74
2021/04/01 11:36:23;;;;;;;12.68;6.30;;;;;;;25.86;46.86;97848.34;5091579;28;20287;-74
2021/04/01 11:39:11;;;;;;;18.48;5.03;;;;;;;26.04;46.13;97847.84;5091613;28;20232;-74
2021/04/01 11:41:47;;;;;;;15.27;5.40;;;;;;;26.09;45.18;97832.38;5091355;28;20208;-74
2021/04/01 11:44:19;;;;;;;12.82;5.82;;;;;;;26.44;47.12;97828.53;5090524;28;20265;-74
2021/04/01 11:46:45;;;;;;;15.35;5.43;;;;;;;26.52;45.94;97821.38;5091246;28;20208;-74
2021/04/01 11:49:12;;;;;;;10.38;5.25;;;;;;;26.56;44.26;97824.91;5090642;28;20204;-74
2021/04/01 11:51:38;;;;;;;10.15;5.32;;;;;;;26.41;45.03;97826.56;5091782;28;20232;-74
2021/04/01 11:54:08;;;;;;;10.77;5.45;;;;;;;26.15;47.22;97824.94;5091414;28;20204;-74
2021/04/01 11:56:44;;;;;;;10.32;4.93;;;;;;;26.23;46.69;97821.44;5090357;28;20254;-73
2021/04/01 11:59:16;;;;;;;9.02;4.88;;;;;;;26.21;46.92;97823.13;5091683;28;20653;-74
2021/04/01 12:01:50;;;;;;;9.80;5.35;;;;;;;26.09;47.17;97815.41;5091531;28;20208;-74
2021/04/01 12:04:18;;;;;;;16.67;6.00;;;;;;;25.96;47.80;97818.19;5089656;28;20224;-74
2021/04/01 12:06:45;;;;;;;13.07;6.15;;;;;;;25.95;46.87;97813.75;5090111;28;20650;-74
2021/04/01 12:09:12;;;;;;;16.20;6.38;;;;;;;25.94;46.64;97804.47;5091321;28;20208;-73
2021/04/01 12:11:45;;;;;;;9.77;5.20;;;;;;;26.04;44.99;97808.25;5091138;28;20643;-73
2021/04/01 12:14:14;;;;;;;10.45;5.50;;;;;;;25.58;43.88;97803.84;5091509;28;20258;-74
2021/04/01 12:16:40;;;;;;;13.13;4.88;;;;;;;25.79;44.85;97811.78;5090736;28;20213;-74
2021/04/01 12:19:07;;;;;;;13.13;4.63;;;;;;;25.81;44.94;97805.66;5091305;28;20236;-74
2021/04/01 12:21:34;;;;;;;13.73;5.03;;;;;;;25.69;44.83;97809.25;5089685;28;20224;-73
2021/04/01 12:24:03;;;;;;;13.52;5.32;;;;;;;25.46;44.39;97796.13;5081426;28;20613;-73
2021/04/01 12:26:41;;;;;;;8.85;4.72;;;;;;;25.42;44.71;97803.88;5083983;28;20293;-72
2021/04/01 12:29:07;;;;;;;12.27;5.25;;;;;;;25.46;45.36;97798.13;5086308;28;20204;-73
2021/04/01 12:31:39;;;;;;;9.82;4.15;;;;;;;25.52;44.29;97787.91;5086878;28;20262;-71
2021/04/01 12:34:10;;;;;;;18.38;4.65;;;;;;;25.74;45.09;97772.75;5084539;28;20247;-73
2021/04/01 12:36:39;;;;;;;16.05;5.38;;;;;;;25.56;44.01;97788.59;5084522;28;20262;-72
2021/04/01 12:39:10;;;;;;;11.07;4.60;;;;;;;25.62;43.95;97778.34;5085417;28;20250;-72
2021/04/01 12:41:39;;;;;;;18.08;4.32;;;;;;;25.44;43.60;97781.63;5087220;28;20232;-72
2021/04/01 12:44:05;;;;;;;16.52;4.63;;;;;;;24.99;42.26;97773.09;5086391;28;20233;-72
2021/04/01 12:46:36;;;;;;;15.02;3.42;;;;;;;24.86;43.01;97771.41;5089051;28;20620;-73
2021/04/01 12:49:03;;;;;;;11.95;4.18;;;;;;;24.95;43.29;97778.03;5099168;28;20236;-72
2021/04/01 12:51:41;;;;;;;14.82;4.50;;;;;;;24.88;43.84;97771.78;5107297;28;20220;-73
2021/04/01 12:54:10;;;;;;;20.77;4.72;;;;;;;25.13;45.13;97763.47;5106731;28;20196;-73
2021/04/01 12:56:40;;;;;;;12.30;4.60;;;;;;;25.04;43.96;97780.25;5093960;28;20580;-71
2021/04/01 12:59:15;;;;;;;11.80;4.60;;;;;;;24.91;42.64;97776.53;5089044;28;20201;-72
2021/04/01 13:01:50;;;;;;;14.07;4.75;;;;;;;25.05;42.74;97771.31;5088676;28;20207;-71
2021/04/01 13:04:20;;;;;;;15.35;5.07;;;;;;;25.13;44.72;97786.06;5089899;28;20259;-72
2021/04/01 13:11:43;;;;;;;19.23;6.05;;;;;;;25.30;45.50;97765.03;5090042;28;20773;-73
2021/04/01 13:14:10;;;;;;;9.82;4.95;;;;;;;25.33;43.97;97766.97;5092771;28;20707;-73
2021/04/01 13:16:37;;;;;;;11.82;4.78;;;;;;;25.21;45.41;97764.06;5091192;28;20205;-74
2021/04/01 13:19:06;;;;;;;15.32;5.45;;;;;;;25.19;44.70;97770.16;5092635;28;20200;-73
2021/04/01 13:26:59;;;;;;;13.68;4.70;;;;;;;25.29;44.02;97751.34;5092903;28;20228;-73
2021/04/01 13:29:31;;;;;;;8.48;4.47;;;;;;;25.43;45.08;97746.16;5091552;28;20205;-75
2021/04/01 13:32:30;;;;;;;16.10;5.03;;;;;;;25.07;45.09;97745.47;5092499;28;20697;-74
2021/04/01 13:34:59;;;;;;;17.23;4.72;;;;;;;24.86;42.92;97740.34;5092887;28;20208;-74
2021/04/01 13:37:35;;;;;;;9.98;4.65;;;;;;;24.72;42.88;97740.72;5080336;28;20785;-71
2021/04/01 13:40:09;;;;;;;11.35;4.88;;;;;;;24.82;41.97;97731.19;5085676;28;20291;-71
2021/04/01 13:42:37;;;;;;;10.40;5.25;;;;;;;24.69;42.16;97731.06;5089539;28;20208;-73